• Join FlightAware (Why Join?)
  • Login
  • US Flag 
05:22AM EDT


 

Airport Tracker/Info


-or-


 

Live Flight TrackerFlight Track Log ✈ UPS1121 ✈ 15 de Aug de 2013 ✈ KALB - KBDL

Flight Track Log - Related Links

Times and Time Zones

All times are in EDT time to prevent confusion due to time zone crossing. See the UPS1121 flight status page for this flight to view local times or setup timezone preferences in your user account.

Time Position Orientation Groundspeed Altitude Reporting Facility
EDT Latitude Longitude Course Direction KTS MPH feet Rate Location/Type
08:33PM 42.7319 -73.8081 165° South 152 175 1,700  Level Boston Center
08:34PM 42.6903 -73.7931 165° South 180 207 2,600 2,400 Climbing Boston Center
08:35PM 42.6292 -73.6789 126° Southeast 266 306 7,300 3,180 Climbing Boston Center
08:36PM 42.5758 -73.5906 129° Southeast 292 336 10,700 1,800 Climbing Boston Center
08:37PM 42.5164 -73.4850 127° Southeast 329 379 11,000 120 Climbing Boston Center
08:38PM 42.4444 -73.3797 133° Southeast 366 421 11,000 -60 Level Boston Center
08:39PM 42.3722 -73.2803 134° Southeast 373 429 10,900  Descending Boston Center
08:40PM 42.3144 -73.2039 136° Southeast 373 429 11,000  Climbing Boston Center
08:41PM 42.2567 -73.0992 127° Southeast 375 432 11,000 -480 Level Boston Center
08:42PM 42.2344 -72.9842 105° East 339 390 10,200 -1,440 Descending Boston Center
08:43PM 42.2142 -72.8772 104° East 275 316 8,200 -2,160 Descending Boston Center
08:44PM 42.1956 -72.7681 103° East 282 325 5,900 -1,620 Descending Boston Center
08:45PM 42.1708 -72.6669 108° East 274 315 5,000 -780 Descending Boston Center
08:46PM 42.1669 -72.5803 93° East 225 259 4,400 -780 Descending Boston Center
08:47PM 42.1336 -72.5242 129° Southeast 222 255 3,600 -780 Descending Boston Center
08:48PM 42.0814 -72.5044 164° South 187 215 3,000 -420 Descending Boston Center
08:49PM 42.0669 -72.5239 225° Southwest 188 216 3,000 -480 Level Boston Center
08:50PM 42.0189 -72.5825 222° Southwest 149 171 2,200 -720 Descending Boston Center
08:51PM 42.0022 -72.6050 225° Southwest 150 173 1,600 -660 Descending Boston Center
08:52PM 41.9792 -72.6383 227° Southwest 136 157 900 -600 Descending Boston Center